X

Important NEWS



New Hub Active

Miami is our new hub! Old members can request transfer via hr@dlxairways.net

Thank you very much and have nice flight.


Deluxe Airways.

X

Tours



Hello again, we created one nice test tour for all pilots to attend. also this is ment to be testing of our tour system

Available Tours

If you find some issues please inform us.

Thank you very much and have nice flight.


Deluxe Airways.

 METAR AND TAF INFORMATION
ArrayMETAR FOR HECA
996007 5 HECA 191030Z 04012KT 9999 SCT025 18/07 Q1020 NOSIG HECA 2019-01-19T10:30:00Z 30.12 31.38 18.0 7.0 40 12 6.21 30.11811 TRUE VFR METAR 74.0 HECA 191000Z 06011KT 9999 SCT025 17/06 Q1020 NOSIG HECA 2019-01-19T10:00:00Z 30.12 31.38 17.0 6.0 60 11 6.21 30.11811 TRUE VFR METAR 74.0 HECA 190930Z 05012KT 9999 SCT025 16/06 Q1021 NOSIG HECA 2019-01-19T09:30:00Z 30.12 31.38 16.0 6.0 50 12 6.21 30.147638 TRUE VFR METAR 74.0 HECA 190900Z 06011KT 9999 SCT025 16/07 Q1021 NOSIG HECA 2019-01-19T09:00:00Z 30.12 31.38 16.0 7.0 60 11 6.21 30.147638 TRUE VFR METAR 74.0

 AIRPORT MAP

 RUNWAY INFORMATION
Runway 05C Runway length 13120 ft Runway width 197 ft
Runway elevation 382 ft Runway displaced threshold 0 ft Runway heading 45
Runway 23C Runway length 13120 ft Runway width 197 ft
Runway elevation 0 ft Runway displaced threshold 0 ft Runway heading 225
Runway 05L Runway length 10830 ft Runway width 197 ft
Runway elevation 190 ft Runway displaced threshold 0 ft Runway heading 49
Runway 23R Runway length 10830 ft Runway width 197 ft
Runway elevation 199 ft Runway displaced threshold 0 ft Runway heading 229
Runway 05R Runway length 13124 ft Runway width 197 ft
Runway elevation 382 ft Runway displaced threshold 0 ft Runway heading 49
Runway 23L Runway length 13124 ft Runway width 197 ft
Runway elevation 375 ft Runway displaced threshold 0 ft Runway heading 229

 AIRPORT FREQUENCIES
Type APP Name APP Frequency 119.05 MHZ
Type ATIS Name ATIS Frequency 122.6 MHZ
Type GND Name GND Frequency 121.9 MHZ
Type MISC Name VOLMET Frequency 126.2 MHZ
Type PFLT Name PREFLIGHT Frequency 120.1 MHZ
Type rdo Name cairo radi Frequency 11.3 MHZ
Type TWR Name TWR Frequency 118.1 MHZ
Type Volmet Name Frequency 124.6 MHZ

 AIRPORT NEAR NAVIGATION AIDS
Type NDB Name Cairo Frequency 310 KHZ
Type VOR-DME Name Cairo Frequency 112500 KHZ
Type VOR-DME Name Cairo Frequency 115200 KHZ
Type NDB Name Cairo Frequency 317 KHZ



Powered by Virtual Airlines Manager [v2.6.2]

Template code change by DeluxeAir